createdAt,value
2023-01-10T00:00:32.360Z,4.80
2023-01-10T00:02:59.249Z,5.60
2023-01-10T00:05:26.161Z,4.60
2023-01-10T00:07:52.972Z,7.40
2023-01-10T00:10:19.792Z,4.80
2023-01-10T00:13:04.945Z,4.80
2023-01-10T00:15:35.829Z,4.70
2023-01-10T00:18:02.945Z,4.70
2023-01-10T00:20:29.846Z,6.80
2023-01-10T00:22:56.601Z,4.70
2023-01-10T00:25:23.620Z,4.70
2023-01-10T00:27:55.263Z,4.60
2023-01-10T00:30:22.132Z,6.50
2023-01-10T00:32:48.992Z,4.70
2023-01-10T00:35:15.773Z,5.80
2023-01-10T00:37:42.600Z,4.70
2023-01-10T00:40:11.654Z,6.90
2023-01-10T00:42:57.056Z,4.60
2023-01-10T00:45:25.115Z,4.60
2023-01-10T00:47:52.308Z,4.60
2023-01-10T00:50:19.194Z,4.60
2023-01-10T00:52:45.968Z,4.60
2023-01-10T00:59:14.031Z,4.60
2023-01-10T01:04:25.081Z,6.70
2023-01-10T01:06:51.885Z,4.50
2023-01-10T01:09:18.694Z,7.00
2023-01-10T01:11:45.496Z,4.50
2023-01-10T01:14:12.287Z,6.80
2023-01-10T01:16:40.353Z,4.40
2023-01-10T01:19:07.213Z,4.40
2023-01-10T01:21:34.003Z,4.40
2023-01-10T01:24:00.773Z,4.30
2023-01-10T01:26:27.603Z,4.30
2023-01-10T01:28:54.360Z,4.30
2023-01-10T01:31:21.210Z,6.70
2023-01-10T01:33:48.091Z,4.30
2023-01-10T01:36:14.937Z,6.30
2023-01-10T01:38:42.202Z,4.20
2023-01-10T01:41:28.981Z,4.20
2023-01-10T01:44:04.606Z,4.20
2023-01-10T01:46:31.449Z,5.00
2023-01-10T01:48:58.180Z,6.50
2023-01-10T01:51:26.946Z,4.10
2023-01-10T01:54:02.349Z,5.90
2023-01-10T01:56:29.132Z,4.10
2023-01-10T01:59:00.472Z,4.00
2023-01-10T02:01:27.435Z,4.00
2023-01-10T02:03:57.361Z,4.00
2023-01-10T02:06:24.369Z,4.00
2023-01-10T02:08:55.233Z,4.00
2023-01-10T02:11:22.021Z,4.00
2023-01-10T02:13:49.378Z,3.90
2023-01-10T02:16:16.599Z,4.00
2023-01-10T02:18:43.443Z,3.90
2023-01-10T02:21:39.707Z,3.90
2023-01-10T02:24:24.607Z,4.00
2023-01-10T02:27:07.347Z,3.90
2023-01-10T02:30:08.530Z,3.90
2023-01-10T02:32:45.934Z,3.90
2023-01-10T02:35:39.540Z,4.90
2023-01-10T02:38:27.759Z,3.90
2023-01-10T02:41:15.593Z,3.90
2023-01-10T02:43:51.906Z,3.90
2023-01-10T02:46:25.558Z,5.80
2023-01-10T02:48:54.091Z,3.90
2023-01-10T02:51:22.843Z,3.90
2023-01-10T02:53:53.762Z,3.90
2023-01-10T02:56:43.812Z,3.30
2023-01-10T02:59:23.376Z,3.90
2023-01-10T03:01:59.348Z,3.90
2023-01-10T03:04:36.732Z,3.90
2023-01-10T03:07:40.109Z,3.90
2023-01-10T03:10:21.103Z,3.90
2023-01-10T03:12:57.421Z,3.90
2023-01-10T03:15:24.871Z,3.90
2023-01-10T03:17:53.582Z,3.90
2023-01-10T03:20:20.379Z,4.00
2023-01-10T03:22:47.166Z,6.40
2023-01-10T03:25:14.695Z,3.90
2023-01-10T03:27:44.559Z,3.90
2023-01-10T03:30:26.750Z,3.90
2023-01-10T03:32:54.198Z,3.90
2023-01-10T03:35:21.042Z,3.90
2023-01-10T03:37:57.336Z,3.90
2023-01-10T03:40:57.727Z,3.90
2023-01-10T03:44:03.187Z,3.90
2023-01-10T03:46:50.071Z,3.90
2023-01-10T03:49:16.875Z,3.90
2023-01-10T03:51:43.673Z,3.90
2023-01-10T03:54:10.427Z,5.70
2023-01-10T03:56:45.111Z,3.90
2023-01-10T03:59:11.885Z,4.00
2023-01-10T04:01:38.730Z,3.90
2023-01-10T04:04:05.701Z,3.90
2023-01-10T04:06:32.527Z,3.90
2023-01-10T04:08:59.287Z,5.00
2023-01-10T04:11:26.070Z,5.40
2023-01-10T04:13:52.809Z,3.90
2023-01-10T04:16:20.330Z,3.90
2023-01-10T04:18:47.112Z,4.80
2023-01-10T04:21:13.861Z,3.90
2023-01-10T04:23:40.934Z,3.90
2023-01-10T04:26:07.790Z,3.90
2023-01-10T04:28:34.534Z,3.90
2023-01-10T04:31:01.556Z,3.70
2023-01-10T04:33:28.576Z,3.90
2023-01-10T04:35:55.436Z,3.90
2023-01-10T04:38:22.213Z,5.70
2023-01-10T04:40:56.324Z,3.90
2023-01-10T04:43:23.964Z,3.90
2023-01-10T04:45:50.982Z,3.90
2023-01-10T04:48:17.790Z,3.90
2023-01-10T04:50:49.812Z,3.90
2023-01-10T04:53:16.793Z,3.90
2023-01-10T04:55:43.562Z,3.90
2023-01-10T04:58:10.384Z,3.90
2023-01-10T05:00:37.699Z,3.70
2023-01-10T05:03:04.704Z,7.40
2023-01-10T05:05:31.695Z,3.90
2023-01-10T05:07:58.554Z,3.90
2023-01-10T05:10:25.413Z,3.90
2023-01-10T05:12:52.618Z,3.90
2023-01-10T05:15:21.149Z,3.80
2023-01-10T05:17:47.920Z,4.00
2023-01-10T05:20:14.686Z,6.10
2023-01-10T05:22:41.549Z,5.30
2023-01-10T05:25:08.665Z,5.40
2023-01-10T05:27:35.421Z,3.90
2023-01-10T05:30:02.196Z,3.90
2023-01-10T05:32:29.746Z,7.40
2023-01-10T05:34:57.027Z,4.00
2023-01-10T05:37:23.883Z,3.90
2023-01-10T05:39:50.621Z,3.90
2023-01-10T05:42:17.363Z,3.90
2023-01-10T05:44:44.138Z,6.60
2023-01-10T05:47:10.898Z,4.00
2023-01-10T05:49:38.159Z,4.00
2023-01-10T05:52:05.150Z,4.00
2023-01-10T05:54:31.980Z,4.00
2023-01-10T05:56:58.769Z,4.00
2023-01-10T05:59:28.800Z,4.00
2023-01-10T06:01:56.017Z,4.00
2023-01-10T06:04:22.802Z,4.00
2023-01-10T06:06:49.578Z,3.90
2023-01-10T06:09:16.367Z,3.90
2023-01-10T06:11:43.125Z,3.90
2023-01-10T06:14:10.253Z,4.60
2023-01-10T06:16:37.048Z,5.50
2023-01-10T06:19:04.008Z,3.80
2023-01-10T06:21:30.866Z,3.80
2023-01-10T06:24:03.892Z,3.70
2023-01-10T06:26:30.690Z,3.70
2023-01-10T06:28:59.551Z,3.70
2023-01-10T06:31:26.871Z,3.60
2023-01-10T06:33:53.768Z,3.60
2023-01-10T06:36:20.591Z,3.60
2023-01-10T06:38:47.344Z,3.60
2023-01-10T06:41:14.142Z,3.50
2023-01-10T06:43:41.738Z,6.60
2023-01-10T06:46:10.845Z,3.50
2023-01-10T06:48:38.056Z,3.50
2023-01-10T06:51:05.611Z,3.40
2023-01-10T06:53:32.500Z,3.50
2023-01-10T06:55:59.300Z,3.50
2023-01-10T06:58:26.056Z,3.40
2023-01-10T07:00:53.020Z,3.40
2023-01-10T07:03:19.911Z,6.20
2023-01-10T07:05:46.765Z,6.20
2023-01-10T07:08:13.551Z,3.20
2023-01-10T07:10:41.733Z,3.40
2023-01-10T07:13:08.664Z,3.40
2023-01-10T07:15:35.756Z,3.30
2023-01-10T07:18:02.676Z,5.40
2023-01-10T07:20:29.539Z,5.70
2023-01-10T07:22:57.386Z,3.20
2023-01-10T07:25:24.672Z,3.10
2023-01-10T07:27:51.460Z,3.10
2023-01-10T07:30:18.358Z,3.00
2023-01-10T07:32:45.159Z,3.00
2023-01-10T07:35:12.111Z,2.80
2023-01-10T07:37:38.942Z,2.80
2023-01-10T07:40:06.274Z,2.70
2023-01-10T07:42:33.083Z,2.70
2023-01-10T07:44:59.863Z,2.70
2023-01-10T07:47:28.236Z,2.40
2023-01-10T07:49:55.286Z,2.30
2023-01-10T07:56:48.024Z,2.50
2023-01-10T07:59:14.791Z,5.50
2023-01-10T08:01:41.556Z,2.40
2023-01-10T08:04:09.292Z,2.30
2023-01-10T08:06:36.189Z,2.40
2023-01-10T08:09:05.146Z,2.40
2023-01-10T08:11:31.924Z,2.40
2023-01-10T08:13:58.677Z,2.20
2023-01-10T08:16:25.506Z,2.40
2023-01-10T08:18:52.320Z,2.40
2023-01-10T08:21:19.103Z,2.50
2023-01-10T08:23:45.854Z,3.70
2023-01-10T08:26:12.616Z,2.60
2023-01-10T08:28:39.384Z,2.60
2023-01-10T08:31:10.190Z,2.70
2023-01-10T08:33:40.395Z,2.80
2023-01-10T08:36:14.130Z,2.80
2023-01-10T08:38:40.905Z,3.00
2023-01-10T08:41:07.689Z,3.00
2023-01-10T08:43:34.480Z,4.40
2023-01-10T08:46:01.294Z,3.10
2023-01-10T08:48:28.202Z,5.60
2023-01-10T08:50:55.075Z,4.80
2023-01-10T08:53:21.890Z,3.40
2023-01-10T08:55:49.612Z,3.40
2023-01-10T08:58:16.464Z,4.80
2023-01-10T09:00:45.064Z,3.50
2023-01-10T09:03:11.864Z,3.60
2023-01-10T09:05:38.711Z,3.70
2023-01-10T09:08:05.616Z,5.50
2023-01-10T09:10:32.363Z,3.80
2023-01-10T09:13:01.472Z,3.90
2023-01-10T09:15:32.774Z,4.00
2023-01-10T09:18:04.965Z,4.10
2023-01-10T09:20:32.820Z,4.20
2023-01-10T09:23:00.885Z,4.20
2023-01-10T09:25:27.721Z,4.30
2023-01-10T09:27:59.051Z,4.40
2023-01-10T09:30:26.333Z,4.50
2023-01-10T09:32:53.584Z,4.40
2023-01-10T09:35:20.462Z,4.50
2023-01-10T09:37:47.340Z,5.60
2023-01-10T09:40:19.633Z,4.60
2023-01-10T09:43:08.316Z,4.70
2023-01-10T09:45:56.098Z,4.80
2023-01-10T09:48:52.450Z,4.80
2023-01-10T09:51:23.817Z,4.90
2023-01-10T09:53:53.464Z,4.90
2023-01-10T09:56:20.433Z,5.00
2023-01-10T09:58:47.966Z,5.10
2023-01-10T10:01:17.183Z,5.10
2023-01-10T10:04:06.116Z,5.20
2023-01-10T10:06:34.568Z,6.50
2023-01-10T10:09:03.050Z,8.40
2023-01-10T10:11:39.762Z,5.50
2023-01-10T10:14:39.653Z,5.40
2023-01-10T10:17:31.552Z,5.40
2023-01-10T10:20:13.449Z,5.40
2023-01-10T10:22:59.109Z,5.40
2023-01-10T10:25:43.879Z,5.40
2023-01-10T10:28:32.157Z,5.40
2023-01-10T10:31:01.667Z,5.40
2023-01-10T10:33:48.983Z,5.20
2023-01-10T10:36:18.726Z,5.40
2023-01-10T10:38:46.604Z,5.40
2023-01-10T10:41:40.722Z,5.50
2023-01-10T10:44:31.804Z,5.60
2023-01-10T10:46:59.187Z,5.70
2023-01-10T10:49:41.657Z,8.00
2023-01-10T10:52:22.803Z,5.80
2023-01-10T10:54:49.591Z,5.90
2023-01-10T10:57:16.534Z,8.60
2023-01-10T10:59:44.903Z,6.00
2023-01-10T11:02:30.771Z,8.40
2023-01-10T11:05:02.676Z,6.10
2023-01-10T11:07:32.571Z,6.10
2023-01-10T11:09:59.355Z,6.20
2023-01-10T11:12:33.603Z,6.30
2023-01-10T11:15:01.747Z,7.30
2023-01-10T11:17:31.307Z,9.20
2023-01-10T11:20:00.145Z,6.30
2023-01-10T11:22:28.786Z,6.30
2023-01-10T11:24:57.644Z,7.40
2023-01-10T11:27:26.732Z,8.20
2023-01-10T11:29:57.078Z,6.40
2023-01-10T11:32:33.347Z,7.60
2023-01-10T11:35:01.972Z,6.40
2023-01-10T11:37:33.637Z,7.40
2023-01-10T11:40:24.194Z,8.50
2023-01-10T11:42:52.015Z,6.40
2023-01-10T11:45:18.785Z,6.50
2023-01-10T11:48:05.846Z,7.00
2023-01-10T11:50:36.602Z,6.70
2023-01-10T11:53:04.021Z,6.80
2023-01-10T11:55:31.687Z,6.80
2023-01-10T11:58:03.474Z,7.80
2023-01-10T12:01:02.498Z,6.90
2023-01-10T12:03:36.821Z,8.50
2023-01-10T12:06:07.675Z,6.90
2023-01-10T12:08:36.722Z,6.80
2023-01-10T12:11:06.140Z,8.60
2023-01-10T12:13:54.153Z,5.30
2023-01-10T12:16:25.018Z,8.60
2023-01-10T12:19:02.184Z,6.50
2023-01-10T12:21:32.229Z,6.40
2023-01-10T12:24:01.485Z,7.80
2023-01-10T12:26:30.295Z,8.60
2023-01-10T12:28:58.817Z,6.30
2023-01-10T12:31:25.755Z,6.20
2023-01-10T12:34:23.979Z,6.20
2023-01-10T12:37:12.469Z,6.20
2023-01-10T12:39:48.301Z,6.20
2023-01-10T12:42:56.871Z,8.40
2023-01-10T12:45:28.191Z,9.10
2023-01-10T12:48:03.096Z,6.20
2023-01-10T12:50:41.328Z,6.20
2023-01-10T12:53:31.460Z,8.80
2023-01-10T12:56:00.357Z,6.30
2023-01-10T12:58:45.008Z,8.90
2023-01-10T13:01:20.380Z,8.80
2023-01-10T13:03:51.613Z,6.40
2023-01-10T13:10:41.288Z,6.40
2023-01-10T13:13:34.957Z,6.50
2023-01-10T13:16:14.144Z,6.50
2023-01-10T13:19:01.844Z,6.50
2023-01-10T13:21:29.517Z,7.70
2023-01-10T13:24:19.745Z,8.20
2023-01-10T13:26:52.322Z,7.90
2023-01-10T13:29:22.310Z,7.80
2023-01-10T13:31:51.081Z,6.60
2023-01-10T13:34:18.172Z,6.50
2023-01-10T13:36:47.184Z,8.90
2023-01-10T13:39:37.152Z,6.60
2023-01-10T13:42:22.390Z,6.60
2023-01-10T13:45:13.549Z,9.50
2023-01-10T13:47:40.533Z,8.90
2023-01-10T13:50:22.694Z,6.70
2023-01-10T13:52:50.461Z,8.80
2023-01-10T13:55:26.296Z,7.70
2023-01-10T13:58:02.831Z,6.80
2023-01-10T14:00:54.107Z,6.80
2023-01-10T14:03:40.351Z,7.40
2023-01-10T14:06:28.874Z,6.80
2023-01-10T14:09:13.853Z,6.80
2023-01-10T14:11:43.690Z,6.80
2023-01-10T14:14:24.395Z,6.70
2023-01-10T14:17:19.329Z,6.70
2023-01-10T14:19:47.660Z,6.70
2023-01-10T14:22:36.460Z,8.10
2023-01-10T14:25:05.782Z,6.60
2023-01-10T14:27:52.941Z,6.70
2023-01-10T14:30:32.725Z,8.90
2023-01-10T14:33:19.956Z,6.70
2023-01-10T14:35:47.835Z,6.70
2023-01-10T14:38:26.124Z,6.70
2023-01-10T14:40:55.592Z,6.60
2023-01-10T14:43:25.633Z,8.50
2023-01-10T14:46:06.373Z,7.50
2023-01-10T14:48:34.834Z,6.60
2023-01-10T14:51:16.552Z,8.30
2023-01-10T14:53:43.356Z,7.70
2023-01-10T14:56:26.764Z,6.50
2023-01-10T14:58:53.622Z,8.20
2023-01-10T15:01:27.272Z,6.40
2023-01-10T15:03:54.401Z,9.40
2023-01-10T15:06:21.238Z,8.80
2023-01-10T15:08:56.012Z,8.60
2023-01-10T15:11:22.774Z,7.60
2023-01-10T15:13:52.716Z,8.30
2023-01-10T15:18:47.227Z,5.90
2023-01-10T15:21:14.548Z,5.80
2023-01-10T15:23:43.210Z,7.90
2023-01-10T15:26:30.789Z,6.80
2023-01-10T15:29:17.064Z,5.50
2023-01-10T15:31:44.529Z,5.50
2023-01-10T15:34:21.746Z,5.30
2023-01-10T15:36:55.979Z,5.30
2023-01-10T15:39:24.792Z,5.30
2023-01-10T15:41:56.815Z,7.20
2023-01-10T15:44:38.760Z,7.10
2023-01-10T15:47:13.655Z,5.10
2023-01-10T15:49:40.447Z,5.00
2023-01-10T15:52:22.628Z,5.00
2023-01-10T15:54:49.601Z,5.00
2023-01-10T15:57:24.832Z,4.90
2023-01-10T15:59:52.106Z,4.80
2023-01-10T16:02:33.368Z,6.90
2023-01-10T16:05:13.881Z,4.80
2023-01-10T16:07:45.290Z,4.70
2023-01-10T16:10:20.438Z,4.70
2023-01-10T16:13:05.801Z,6.10
2023-01-10T16:15:35.540Z,4.50
2023-01-10T16:18:02.412Z,4.50
2023-01-10T16:20:32.658Z,6.30
2023-01-10T16:22:59.973Z,4.40
2023-01-10T16:25:35.632Z,4.40
2023-01-10T16:28:02.547Z,4.30
2023-01-10T16:30:31.193Z,7.10
2023-01-10T16:32:59.197Z,4.20
2023-01-10T16:35:26.069Z,4.00
2023-01-10T16:37:57.646Z,5.50
2023-01-10T16:40:28.304Z,4.10
2023-01-10T16:43:14.192Z,4.10
2023-01-10T16:45:41.013Z,4.10
2023-01-10T16:48:07.937Z,4.00
2023-01-10T16:50:34.761Z,4.00
2023-01-10T16:53:01.609Z,6.80
2023-01-10T16:55:52.199Z,6.70
2023-01-10T16:58:19.819Z,4.10
2023-01-10T17:00:51.014Z,4.10
2023-01-10T17:03:22.399Z,4.10
2023-01-10T17:05:49.313Z,4.10
2023-01-10T17:08:21.006Z,5.20
2023-01-10T17:10:52.625Z,5.10
2023-01-10T17:13:29.839Z,4.10
2023-01-10T17:15:56.704Z,4.10
2023-01-10T17:18:25.884Z,4.10
2023-01-10T17:20:52.669Z,4.00
2023-01-10T17:23:19.406Z,4.20
2023-01-10T17:25:48.392Z,4.30
2023-01-10T17:28:15.269Z,4.40
2023-01-10T17:30:42.470Z,6.90
2023-01-10T17:33:10.893Z,4.50
2023-01-10T17:35:44.358Z,4.50
2023-01-10T17:38:14.019Z,4.50
2023-01-10T17:40:41.820Z,4.60
2023-01-10T17:43:08.955Z,4.40
2023-01-10T17:45:41.979Z,4.60
2023-01-10T17:48:09.029Z,4.70
2023-01-10T17:50:36.274Z,4.70
2023-01-10T17:53:03.068Z,7.00
2023-01-10T17:55:29.826Z,4.70
2023-01-10T17:57:57.046Z,4.70
2023-01-10T18:00:23.972Z,7.90
2023-01-10T18:02:50.935Z,4.90
2023-01-10T18:05:18.210Z,4.90
2023-01-10T18:07:45.074Z,5.00
2023-01-10T18:10:11.919Z,5.00
2023-01-10T18:12:38.705Z,7.40
2023-01-10T18:15:05.936Z,5.10
2023-01-10T18:17:32.804Z,5.10
2023-01-10T18:19:59.720Z,5.20
2023-01-10T18:22:45.385Z,5.10
2023-01-10T18:25:12.240Z,5.20
2023-01-10T18:27:39.027Z,5.20
2023-01-10T18:30:06.429Z,5.20
2023-01-10T18:32:33.447Z,5.30
2023-01-10T18:35:00.221Z,7.20
2023-01-10T18:37:27.043Z,5.30
2023-01-10T18:39:53.938Z,8.40
2023-01-10T18:42:20.781Z,7.10
2023-01-10T18:44:47.603Z,8.00
2023-01-10T18:47:14.474Z,5.40
2023-01-10T18:49:41.249Z,8.20
2023-01-10T18:52:16.578Z,8.20
2023-01-10T18:54:43.375Z,5.50
2023-01-10T18:57:10.148Z,5.40
2023-01-10T18:59:38.031Z,7.00
2023-01-10T19:02:04.955Z,5.40
2023-01-10T19:04:31.816Z,5.40
2023-01-10T19:06:58.580Z,5.40
2023-01-10T19:09:25.357Z,5.70
2023-01-10T19:11:52.103Z,7.10
2023-01-10T19:14:19.566Z,5.40
2023-01-10T19:16:46.331Z,7.20
2023-01-10T19:19:13.162Z,5.30
2023-01-10T19:21:41.153Z,8.50
2023-01-10T19:24:21.505Z,5.20
2023-01-10T19:26:48.362Z,5.20
2023-01-10T19:29:15.164Z,8.00
2023-01-10T19:31:43.321Z,5.10
2023-01-10T19:34:11.261Z,5.10
2023-01-10T19:36:39.476Z,6.60
2023-01-10T19:39:07.350Z,5.10
2023-01-10T19:41:36.953Z,5.20
2023-01-10T19:44:06.116Z,5.20
2023-01-10T19:46:34.136Z,5.20
2023-01-10T19:49:07.760Z,5.30
2023-01-10T19:51:36.633Z,5.60
2023-01-10T19:54:03.899Z,5.00
2023-01-10T19:56:30.683Z,5.40
2023-01-10T19:58:57.649Z,5.40
2023-01-10T20:01:25.877Z,6.70
2023-01-10T20:03:52.996Z,5.40
2023-01-10T20:06:21.516Z,5.30
2023-01-10T20:08:48.738Z,6.30
2023-01-10T20:11:15.795Z,5.30
2023-01-10T20:13:45.608Z,5.20
2023-01-10T20:16:13.146Z,7.40
2023-01-10T20:18:43.791Z,8.10
2023-01-10T20:21:11.719Z,6.00
2023-01-10T20:23:39.251Z,5.30
2023-01-10T20:26:14.192Z,5.30
2023-01-10T20:28:41.325Z,7.30
2023-01-10T20:31:09.146Z,5.20
2023-01-10T20:33:36.053Z,5.20
2023-01-10T20:36:04.520Z,5.10
2023-01-10T20:38:31.621Z,5.10
2023-01-10T20:41:02.926Z,7.80
2023-01-10T20:43:29.718Z,5.10
2023-01-10T20:45:56.541Z,6.80
2023-01-10T20:48:23.510Z,6.00
2023-01-10T20:50:50.394Z,4.90
2023-01-10T20:53:17.179Z,5.10
2023-01-10T20:55:46.831Z,5.50
2023-01-10T20:58:17.660Z,5.10
2023-01-10T21:00:44.506Z,5.10
2023-01-10T21:03:11.390Z,6.20
2023-01-10T21:05:38.871Z,6.90
2023-01-10T21:08:05.646Z,5.00
2023-01-10T21:10:32.441Z,7.70
2023-01-10T21:12:59.414Z,7.30
2023-01-10T21:15:26.232Z,5.80
2023-01-10T21:17:53.164Z,5.10
2023-01-10T21:20:19.979Z,5.00
2023-01-10T21:22:46.881Z,7.60
2023-01-10T21:25:13.813Z,5.10
2023-01-10T21:27:40.686Z,5.20
2023-01-10T21:30:09.185Z,6.60
2023-01-10T21:32:36.039Z,5.20
2023-01-10T21:35:03.007Z,7.70
2023-01-10T21:37:29.797Z,5.20
2023-01-10T21:39:56.586Z,5.20
2023-01-10T21:42:35.355Z,7.60
2023-01-10T21:45:02.243Z,7.20
2023-01-10T21:47:29.170Z,7.70
2023-01-10T21:49:55.937Z,5.20
2023-01-10T21:52:23.108Z,6.50
2023-01-10T21:54:49.906Z,5.20
2023-01-10T21:57:21.741Z,7.30
2023-01-10T21:59:49.747Z,5.00
2023-01-10T22:02:16.816Z,5.30
2023-01-10T22:04:51.866Z,7.70
2023-01-10T22:07:25.538Z,7.40
2023-01-10T22:09:52.462Z,5.40
2023-01-10T22:12:19.936Z,7.60
2023-01-10T22:14:46.859Z,5.40
2023-01-10T22:17:14.086Z,5.40
2023-01-10T22:19:41.077Z,8.10
2023-01-10T22:22:08.190Z,6.70
2023-01-10T22:24:35.054Z,8.20
2023-01-10T22:27:01.836Z,6.60
2023-01-10T22:29:28.639Z,8.00
2023-01-10T22:31:55.570Z,5.60
2023-01-10T22:34:22.491Z,5.70
2023-01-10T22:36:49.282Z,5.70
2023-01-10T22:39:16.082Z,5.70
2023-01-10T22:41:42.898Z,5.70
2023-01-10T22:44:18.466Z,5.60
2023-01-10T22:46:45.944Z,5.60
2023-01-10T22:49:13.001Z,5.60
2023-01-10T22:51:39.779Z,5.70
2023-01-10T22:54:06.659Z,5.70
2023-01-10T22:56:33.467Z,5.60
2023-01-10T22:59:00.274Z,6.90
2023-01-10T23:01:27.095Z,5.50
2023-01-10T23:03:53.934Z,5.60
2023-01-10T23:06:20.885Z,5.70
2023-01-10T23:08:47.820Z,7.80
2023-01-10T23:11:15.899Z,5.80
2023-01-10T23:13:42.778Z,5.80
2023-01-10T23:16:12.436Z,7.10
2023-01-10T23:18:39.263Z,7.20
2023-01-10T23:21:06.224Z,6.60
2023-01-10T23:23:33.008Z,6.90
2023-01-10T23:26:05.417Z,5.80
2023-01-10T23:28:51.100Z,5.80
2023-01-10T23:31:22.168Z,6.20
2023-01-10T23:33:49.358Z,5.80
2023-01-10T23:36:16.840Z,8.20
2023-01-10T23:38:43.919Z,5.90
2023-01-10T23:41:10.896Z,5.90
2023-01-10T23:43:37.948Z,5.90
2023-01-10T23:46:05.992Z,6.50
2023-01-10T23:48:33.071Z,5.90
2023-01-10T23:50:59.969Z,5.90
2023-01-10T23:53:26.903Z,8.10
2023-01-10T23:55:53.678Z,8.30
2023-01-10T23:58:20.589Z,5.90
